sensor_id;sensor_type;location;lat;lon;timestamp;pressure;altitude;pressure_sealevel;temperature;humidity
43161;BME280;40968;52.342;5.528;2023-02-03T00:02:03;102185.16;;;6.89;82.32
43161;BME280;40968;52.342;5.528;2023-02-03T00:04:30;102363.59;;;7.91;82.14
43161;BME280;40968;52.342;5.528;2023-02-03T00:06:57;102362.06;;;7.84;82.10
43161;BME280;40968;52.342;5.528;2023-02-03T00:09:24;102371.63;;;7.90;81.81
43161;BME280;40968;52.342;5.528;2023-02-03T00:11:51;102391.53;;;8.05;81.86
43161;BME280;40968;52.342;5.528;2023-02-03T00:14:20;102335.31;;;7.62;81.77
43161;BME280;40968;52.342;5.528;2023-02-03T00:16:46;102404.84;;;8.06;81.61
43161;BME280;40968;52.342;5.528;2023-02-03T00:19:13;102417.25;;;8.07;81.52
43161;BME280;40968;52.342;5.528;2023-02-03T00:21:39;102419.94;;;8.07;81.45
43161;BME280;40968;52.342;5.528;2023-02-03T00:24:06;102318.22;;;7.44;81.23
43161;BME280;40968;52.342;5.528;2023-02-03T00:26:33;102396.63;;;7.87;81.30
43161;BME280;40968;52.342;5.528;2023-02-03T00:28:59;102398.00;;;7.99;81.09
43161;BME280;40968;52.342;5.528;2023-02-03T00:31:27;102444.75;;;8.09;81.06
43161;BME280;40968;52.342;5.528;2023-02-03T00:33:55;102347.75;;;7.63;80.68
43161;BME280;40968;52.342;5.528;2023-02-03T00:36:22;102399.91;;;7.95;80.70
43161;BME280;40968;52.342;5.528;2023-02-03T00:38:49;102432.28;;;8.10;80.71
43161;BME280;40968;52.342;5.528;2023-02-03T00:41:15;102425.22;;;8.09;80.51
43161;BME280;40968;52.342;5.528;2023-02-03T00:43:42;102415.34;;;8.11;80.33
43161;BME280;40968;52.342;5.528;2023-02-03T00:46:09;102424.16;;;8.13;80.31
43161;BME280;40968;52.342;5.528;2023-02-03T00:48:37;102410.25;;;8.05;80.19
43161;BME280;40968;52.342;5.528;2023-02-03T00:51:03;102404.59;;;8.12;80.20
43161;BME280;40968;52.342;5.528;2023-02-03T00:53:30;102409.06;;;8.12;80.00
43161;BME280;40968;52.342;5.528;2023-02-03T00:55:57;102351.53;;;7.81;79.93
43161;BME280;40968;52.342;5.528;2023-02-03T00:58:23;102397.81;;;8.04;79.84
43161;BME280;40968;52.342;5.528;2023-02-03T01:00:50;102389.44;;;8.13;79.97
43161;BME280;40968;52.342;5.528;2023-02-03T01:03:16;102361.41;;;8.01;79.92
43161;BME280;40968;52.342;5.528;2023-02-03T01:05:44;102337.34;;;7.79;79.71
43161;BME280;40968;52.342;5.528;2023-02-03T01:08:11;102324.06;;;7.77;79.67
43161;BME280;40968;52.342;5.528;2023-02-03T01:10:38;102392.16;;;8.11;79.66
43161;BME280;40968;52.342;5.528;2023-02-03T01:13:04;102409.06;;;8.12;79.54
43161;BME280;40968;52.342;5.528;2023-02-03T01:15:31;102358.47;;;7.85;79.59
43161;BME280;40968;52.342;5.528;2023-02-03T01:17:57;102380.03;;;8.03;79.39
43161;BME280;40968;52.342;5.528;2023-02-03T01:20:24;102396.66;;;8.11;79.24
43161;BME280;40968;52.342;5.528;2023-02-03T01:22:52;102287.31;;;7.62;79.27
43161;BME280;40968;52.342;5.528;2023-02-03T01:25:18;102347.56;;;7.91;79.19
43161;BME280;40968;52.342;5.528;2023-02-03T01:27:45;102334.09;;;7.94;79.08
43161;BME280;40968;52.342;5.528;2023-02-03T01:30:12;102269.28;;;7.45;78.72
43161;BME280;40968;52.342;5.528;2023-02-03T01:32:39;102371.94;;;8.06;78.84
43161;BME280;40968;52.342;5.528;2023-02-03T01:35:06;102327.94;;;7.92;78.75
43161;BME280;40968;52.342;5.528;2023-02-03T01:37:32;102360.06;;;8.13;78.83
43161;BME280;40968;52.342;5.528;2023-02-03T01:40:00;102294.78;;;7.76;78.56
43161;BME280;40968;52.342;5.528;2023-02-03T01:42:27;102364.47;;;8.14;78.47
43161;BME280;40968;52.342;5.528;2023-02-03T01:44:57;102353.78;;;8.14;78.38
43161;BME280;40968;52.342;5.528;2023-02-03T01:47:28;102373.41;;;8.13;78.29
43161;BME280;40968;52.342;5.528;2023-02-03T01:50:09;102272.03;;;7.66;78.27
43161;BME280;40968;52.342;5.528;2023-02-03T01:52:37;102347.59;;;8.13;78.32
43161;BME280;40968;52.342;5.528;2023-02-03T01:55:12;102200.50;;;7.29;78.25
43161;BME280;40968;52.342;5.528;2023-02-03T01:57:43;102263.13;;;7.67;78.27
43161;BME280;40968;52.342;5.528;2023-02-03T02:00:12;102219.78;;;7.38;78.11
43161;BME280;40968;52.342;5.528;2023-02-03T02:02:40;102305.94;;;7.86;78.17
43161;BME280;40968;52.342;5.528;2023-02-03T02:05:12;102365.41;;;8.13;77.91
43161;BME280;40968;52.342;5.528;2023-02-03T02:07:40;102360.00;;;8.14;78.04
43161;BME280;40968;52.342;5.528;2023-02-03T02:10:10;102333.16;;;7.95;77.92
43161;BME280;40968;52.342;5.528;2023-02-03T02:12:36;102362.59;;;8.16;77.64
43161;BME280;40968;52.342;5.528;2023-02-03T02:15:04;102350.56;;;8.06;77.53
43161;BME280;40968;52.342;5.528;2023-02-03T02:17:55;102296.59;;;7.97;77.36
43161;BME280;40968;52.342;5.528;2023-02-03T02:20:45;102294.72;;;8.00;77.09
43161;BME280;40968;52.342;5.528;2023-02-03T02:23:52;102232.88;;;7.66;76.91
43161;BME280;40968;52.342;5.528;2023-02-03T02:29:55;102294.28;;;7.88;76.38
43161;BME280;40968;52.342;5.528;2023-02-03T02:32:34;102328.47;;;8.24;76.47
43161;BME280;40968;52.342;5.528;2023-02-03T02:35:16;102331.13;;;8.24;76.23
43161;BME280;40968;52.342;5.528;2023-02-03T02:37:49;102315.03;;;8.26;76.18
43161;BME280;40968;52.342;5.528;2023-02-03T02:40:22;102273.22;;;8.03;75.97
43161;BME280;40968;52.342;5.528;2023-02-03T02:42:58;102274.81;;;8.08;75.75
43161;BME280;40968;52.342;5.528;2023-02-03T02:45:29;102250.41;;;7.95;75.69
43161;BME280;40968;52.342;5.528;2023-02-03T02:48:03;102244.38;;;7.90;75.81
43161;BME280;40968;52.342;5.528;2023-02-03T02:50:34;102284.50;;;8.11;75.90
43161;BME280;40968;52.342;5.528;2023-02-03T02:53:03;102301.84;;;8.21;75.58
43161;BME280;40968;52.342;5.528;2023-02-03T02:55:33;102327.09;;;8.14;75.17
43161;BME280;40968;52.342;5.528;2023-02-03T02:58:03;102338.63;;;8.37;75.51
43161;BME280;40968;52.342;5.528;2023-02-03T03:00:34;102332.44;;;8.36;75.81
43161;BME280;40968;52.342;5.528;2023-02-03T03:03:11;102198.31;;;7.63;75.74
43161;BME280;40968;52.342;5.528;2023-02-03T03:05:40;102299.53;;;8.13;75.54
43161;BME280;40968;52.342;5.528;2023-02-03T03:08:08;102298.50;;;8.16;75.75
43161;BME280;40968;52.342;5.528;2023-02-03T03:10:40;102333.28;;;8.37;75.60
43161;BME280;40968;52.342;5.528;2023-02-03T03:13:11;102254.06;;;7.93;75.77
43161;BME280;40968;52.342;5.528;2023-02-03T03:15:39;102312.72;;;8.39;75.89
43161;BME280;40968;52.342;5.528;2023-02-03T03:18:12;102320.84;;;8.36;76.19
43161;BME280;40968;52.342;5.528;2023-02-03T03:20:41;102329.69;;;8.38;76.06
43161;BME280;40968;52.342;5.528;2023-02-03T03:23:13;102283.84;;;8.04;76.23
43161;BME280;40968;52.342;5.528;2023-02-03T03:25:45;102327.84;;;8.40;76.28
43161;BME280;40968;52.342;5.528;2023-02-03T03:28:14;102328.69;;;8.40;76.19
43161;BME280;40968;52.342;5.528;2023-02-03T03:30:42;102312.59;;;8.20;76.28
43161;BME280;40968;52.342;5.528;2023-02-03T03:33:10;102331.28;;;8.42;76.46
43161;BME280;40968;52.342;5.528;2023-02-03T03:35:40;102312.97;;;8.33;76.01
43161;BME280;40968;52.342;5.528;2023-02-03T03:38:13;102328.63;;;8.42;76.24
43161;BME280;40968;52.342;5.528;2023-02-03T03:40:47;102202.28;;;7.75;75.93
43161;BME280;40968;52.342;5.528;2023-02-03T03:43:19;102309.06;;;8.41;76.24
43161;BME280;40968;52.342;5.528;2023-02-03T03:45:52;102320.59;;;8.42;76.32
43161;BME280;40968;52.342;5.528;2023-02-03T03:48:26;102290.94;;;8.27;76.15
43161;BME280;40968;52.342;5.528;2023-02-03T03:50:57;102200.53;;;7.74;76.19
43161;BME280;40968;52.342;5.528;2023-02-03T03:53:25;102317.00;;;8.43;76.19
43161;BME280;40968;52.342;5.528;2023-02-03T03:55:53;102323.28;;;8.42;76.33
43161;BME280;40968;52.342;5.528;2023-02-03T03:58:23;102315.25;;;8.42;76.31
43161;BME280;40968;52.342;5.528;2023-02-03T04:00:53;102327.75;;;8.41;76.26
43161;BME280;40968;52.342;5.528;2023-02-03T04:03:24;102336.72;;;8.40;76.39
43161;BME280;40968;52.342;5.528;2023-02-03T04:05:53;102341.06;;;8.43;76.29
43161;BME280;40968;52.342;5.528;2023-02-03T04:08:20;102302.53;;;8.26;76.18
43161;BME280;40968;52.342;5.528;2023-02-03T04:10:46;102313.22;;;8.26;76.02
43161;BME280;40968;52.342;5.528;2023-02-03T04:13:13;102341.06;;;8.43;76.32
43161;BME280;40968;52.342;5.528;2023-02-03T04:15:40;102350.81;;;8.44;76.00
43161;BME280;40968;52.342;5.528;2023-02-03T04:18:07;102341.88;;;8.45;76.36
43161;BME280;40968;52.342;5.528;2023-02-03T04:20:34;102338.28;;;8.46;76.21
43161;BME280;40968;52.342;5.528;2023-02-03T04:23:01;102288.56;;;8.20;76.28
43161;BME280;40968;52.342;5.528;2023-02-03T04:25:28;102325.47;;;8.32;76.01
43161;BME280;40968;52.342;5.528;2023-02-03T04:27:54;102249.34;;;8.00;76.16
43161;BME280;40968;52.342;5.528;2023-02-03T04:30:21;102266.84;;;8.07;75.84
43161;BME280;40968;52.342;5.528;2023-02-03T04:32:48;102331.16;;;8.46;76.12
43161;BME280;40968;52.342;5.528;2023-02-03T04:35:15;102236.25;;;7.93;76.12
43161;BME280;40968;52.342;5.528;2023-02-03T04:37:43;102315.06;;;8.48;76.13
43161;BME280;40968;52.342;5.528;2023-02-03T04:40:10;102278.63;;;8.23;76.30
43161;BME280;40968;52.342;5.528;2023-02-03T04:42:37;102240.59;;;7.96;76.10
43161;BME280;40968;52.342;5.528;2023-02-03T04:45:06;102205.88;;;7.74;75.81
43161;BME280;40968;52.342;5.528;2023-02-03T04:47:33;102325.75;;;8.48;76.19
43161;BME280;40968;52.342;5.528;2023-02-03T04:49:59;102320.38;;;8.48;76.28
43161;BME280;40968;52.342;5.528;2023-02-03T04:52:26;102323.06;;;8.48;76.24
43161;BME280;40968;52.342;5.528;2023-02-03T04:54:54;102318.66;;;8.47;76.32
43161;BME280;40968;52.342;5.528;2023-02-03T04:57:21;102321.31;;;8.47;76.11
43161;BME280;40968;52.342;5.528;2023-02-03T04:59:47;102320.38;;;8.48;76.43
43161;BME280;40968;52.342;5.528;2023-02-03T05:02:14;102312.38;;;8.48;76.21
43161;BME280;40968;52.342;5.528;2023-02-03T05:04:41;102264.59;;;8.18;76.09
43161;BME280;40968;52.342;5.528;2023-02-03T05:07:08;102328.34;;;8.50;76.15
43161;BME280;40968;52.342;5.528;2023-02-03T05:09:35;102196.94;;;7.75;76.10
43161;BME280;40968;52.342;5.528;2023-02-03T05:12:03;102332.91;;;8.48;76.28
43161;BME280;40968;52.342;5.528;2023-02-03T05:14:30;102302.59;;;8.25;76.06
43161;BME280;40968;52.342;5.528;2023-02-03T05:16:56;102333.69;;;8.50;76.24
43161;BME280;40968;52.342;5.528;2023-02-03T05:19:23;102302.28;;;8.33;76.50
43161;BME280;40968;52.342;5.528;2023-02-03T05:21:49;102291.44;;;8.15;76.50
43161;BME280;40968;52.342;5.528;2023-02-03T05:24:16;102277.66;;;8.04;76.37
43161;BME280;40968;52.342;5.528;2023-02-03T05:26:42;102353.25;;;8.50;76.16
43161;BME280;40968;52.342;5.528;2023-02-03T05:29:10;102325.59;;;8.51;76.23
43161;BME280;40968;52.342;5.528;2023-02-03T05:31:37;102333.75;;;8.48;76.27
43161;BME280;40968;52.342;5.528;2023-02-03T05:34:03;102315.41;;;8.39;76.27
43161;BME280;40968;52.342;5.528;2023-02-03T05:36:30;102328.34;;;8.50;76.21
43161;BME280;40968;52.342;5.528;2023-02-03T05:38:57;102310.13;;;8.37;76.24
43161;BME280;40968;52.342;5.528;2023-02-03T05:41:24;102339.03;;;8.50;76.31
43161;BME280;40968;52.342;5.528;2023-02-03T05:44:09;102274.44;;;8.18;76.15
43161;BME280;40968;52.342;5.528;2023-02-03T05:46:36;102286.16;;;8.13;76.26
43161;BME280;40968;52.342;5.528;2023-02-03T05:49:02;102289.63;;;8.16;76.42
43161;BME280;40968;52.342;5.528;2023-02-03T05:51:29;102296.84;;;8.13;76.37
43161;BME280;40968;52.342;5.528;2023-02-03T05:53:55;102339.16;;;8.46;76.17
43161;BME280;40968;52.342;5.528;2023-02-03T05:56:22;102277.34;;;8.11;76.17
43161;BME280;40968;52.342;5.528;2023-02-03T05:58:48;102291.91;;;8.25;76.38
43161;BME280;40968;52.342;5.528;2023-02-03T06:01:18;102326.78;;;8.44;76.48
43161;BME280;40968;52.342;5.528;2023-02-03T06:03:45;102305.09;;;8.29;76.52
43161;BME280;40968;52.342;5.528;2023-02-03T06:06:12;102287.34;;;8.06;76.43
43161;BME280;40968;52.342;5.528;2023-02-03T06:08:39;102282.47;;;8.16;76.36
43161;BME280;40968;52.342;5.528;2023-02-03T06:11:05;102357.91;;;8.45;76.36
43161;BME280;40968;52.342;5.528;2023-02-03T06:13:32;102296.41;;;8.24;76.44
43161;BME280;40968;52.342;5.528;2023-02-03T06:15:58;102254.69;;;8.00;76.60
43161;BME280;40968;52.342;5.528;2023-02-03T06:18:27;102323.28;;;8.42;76.68
43161;BME280;40968;52.342;5.528;2023-02-03T06:20:53;102333.97;;;8.42;76.67
43161;BME280;40968;52.342;5.528;2023-02-03T06:23:20;102281.53;;;7.96;76.71
43161;BME280;40968;52.342;5.528;2023-02-03T06:25:47;102347.31;;;8.42;76.68
43161;BME280;40968;52.342;5.528;2023-02-03T06:28:14;102347.31;;;8.42;76.60
43161;BME280;40968;52.342;5.528;2023-02-03T06:30:41;102333.03;;;8.43;76.71
43161;BME280;40968;52.342;5.528;2023-02-03T06:33:08;102341.97;;;8.42;76.61
43161;BME280;40968;52.342;5.528;2023-02-03T06:35:36;102303.59;;;8.22;76.71
43161;BME280;40968;52.342;5.528;2023-02-03T06:38:02;102324.72;;;8.28;76.93
43161;BME280;40968;52.342;5.528;2023-02-03T06:40:29;102293.44;;;8.10;76.69
43161;BME280;40968;52.342;5.528;2023-02-03T06:42:55;102352.66;;;8.42;76.83
43161;BME280;40968;52.342;5.528;2023-02-03T06:45:22;102355.41;;;8.40;76.78
43161;BME280;40968;52.342;5.528;2023-02-03T06:47:49;102340.63;;;8.32;76.88
43161;BME280;40968;52.342;5.528;2023-02-03T06:50:16;102325.97;;;8.20;76.81
43161;BME280;40968;52.342;5.528;2023-02-03T06:52:44;102351.44;;;8.28;76.88
43161;BME280;40968;52.342;5.528;2023-02-03T06:55:10;102354.59;;;8.38;77.09
43161;BME280;40968;52.342;5.528;2023-02-03T06:57:42;102260.78;;;7.81;77.01
43161;BME280;40968;52.342;5.528;2023-02-03T07:00:10;102203.41;;;7.47;76.78
43161;BME280;40968;52.342;5.528;2023-02-03T07:02:37;102331.31;;;8.20;76.95
43161;BME280;40968;52.342;5.528;2023-02-03T07:05:05;102123.56;;;6.96;76.74
43161;BME280;40968;52.342;5.528;2023-02-03T07:07:31;102341.00;;;8.22;76.69
43161;BME280;40968;52.342;5.528;2023-02-03T07:09:59;102320.75;;;8.17;76.99
43161;BME280;40968;52.342;5.528;2023-02-03T07:12:26;102328.69;;;8.18;77.13
43161;BME280;40968;52.342;5.528;2023-02-03T07:14:53;102359.91;;;8.40;77.16
43161;BME280;40968;52.342;5.528;2023-02-03T07:17:19;102351.91;;;8.38;77.20
43161;BME280;40968;52.342;5.528;2023-02-03T07:19:46;102236.28;;;7.70;77.12
43161;BME280;40968;52.342;5.528;2023-02-03T07:22:12;102297.25;;;8.03;76.77
43161;BME280;40968;52.342;5.528;2023-02-03T07:24:39;102360.13;;;8.34;77.30
43161;BME280;40968;52.342;5.528;2023-02-03T07:27:07;102361.00;;;8.34;77.35
43161;BME280;40968;52.342;5.528;2023-02-03T07:29:33;102328.56;;;8.21;77.36
43161;BME280;40968;52.342;5.528;2023-02-03T07:32:00;102308.22;;;7.96;77.32
43161;BME280;40968;52.342;5.528;2023-02-03T07:34:27;102303.72;;;7.97;77.16
43161;BME280;40968;52.342;5.528;2023-02-03T07:36:57;102357.47;;;8.34;77.27
43161;BME280;40968;52.342;5.528;2023-02-03T07:39:24;102381.50;;;8.34;77.25
43161;BME280;40968;52.342;5.528;2023-02-03T07:41:53;102298.75;;;7.88;77.45
43161;BME280;40968;52.342;5.528;2023-02-03T07:44:21;102351.28;;;8.09;77.43
43161;BME280;40968;52.342;5.528;2023-02-03T07:46:48;102353.09;;;8.09;77.61
43161;BME280;40968;52.342;5.528;2023-02-03T07:49:15;102400.06;;;8.37;77.52
43161;BME280;40968;52.342;5.528;2023-02-03T07:51:41;102399.16;;;8.38;77.56
43161;BME280;40968;52.342;5.528;2023-02-03T07:54:08;102414.31;;;8.37;77.75
43161;BME280;40968;52.342;5.528;2023-02-03T07:56:35;102411.66;;;8.37;77.72
43161;BME280;40968;52.342;5.528;2023-02-03T07:59:01;102363.63;;;8.13;77.86
43161;BME280;40968;52.342;5.528;2023-02-03T08:01:29;102409.69;;;8.41;77.84
43161;BME280;40968;52.342;5.528;2023-02-03T08:03:58;102427.47;;;8.42;77.81
43161;BME280;40968;52.342;5.528;2023-02-03T08:06:26;102400.34;;;8.30;77.86
43161;BME280;40968;52.342;5.528;2023-02-03T08:08:54;102409.59;;;8.44;77.86
43161;BME280;40968;52.342;5.528;2023-02-03T08:11:21;102322.94;;;7.83;77.88
43161;BME280;40968;52.342;5.528;2023-02-03T08:13:48;102434.47;;;8.46;77.95
43161;BME280;40968;52.342;5.528;2023-02-03T08:16:15;102317.97;;;7.74;77.81
43161;BME280;40968;52.342;5.528;2023-02-03T08:18:44;102307.19;;;7.77;77.74
43161;BME280;40968;52.342;5.528;2023-02-03T08:21:11;102429.34;;;8.40;77.77
43161;BME280;40968;52.342;5.528;2023-02-03T08:23:37;102427.03;;;8.54;78.03
43161;BME280;40968;52.342;5.528;2023-02-03T08:26:04;102420.25;;;8.45;77.86
43161;BME280;40968;52.342;5.528;2023-02-03T08:28:31;102450.25;;;8.52;77.68
43161;BME280;40968;52.342;5.528;2023-02-03T08:30:57;102311.91;;;7.92;77.78
43161;BME280;40968;52.342;5.528;2023-02-03T08:33:24;102382.97;;;8.41;77.92
43161;BME280;40968;52.342;5.528;2023-02-03T08:35:52;102417.34;;;8.52;77.64
43161;BME280;40968;52.342;5.528;2023-02-03T08:38:18;102431.56;;;8.52;77.70
43161;BME280;40968;52.342;5.528;2023-02-03T08:40:46;102455.94;;;8.67;77.70
43161;BME280;40968;52.342;5.528;2023-02-03T08:43:14;102364.34;;;8.17;77.53
43161;BME280;40968;52.342;5.528;2023-02-03T08:45:40;102456.69;;;8.70;77.71
43161;BME280;40968;52.342;5.528;2023-02-03T08:48:07;102453.00;;;8.73;77.58
43161;BME280;40968;52.342;5.528;2023-02-03T08:50:34;102464.56;;;8.73;77.51
43161;BME280;40968;52.342;5.528;2023-02-03T08:53:02;102405.03;;;8.48;77.44
43161;BME280;40968;52.342;5.528;2023-02-03T08:55:28;102451.94;;;8.77;77.76
43161;BME280;40968;52.342;5.528;2023-02-03T08:57:55;102449.13;;;8.80;77.38
43161;BME280;40968;52.342;5.528;2023-02-03T09:00:22;102446.16;;;8.66;77.42
43161;BME280;40968;52.342;5.528;2023-02-03T09:02:48;102465.94;;;8.84;77.45
43161;BME280;40968;52.342;5.528;2023-02-03T09:05:15;102428.19;;;8.69;77.38
43161;BME280;40968;52.342;5.528;2023-02-03T09:07:42;102451.44;;;8.89;77.30
43161;BME280;40968;52.342;5.528;2023-02-03T09:10:11;102426.44;;;8.68;77.19
43161;BME280;40968;52.342;5.528;2023-02-03T09:12:37;102453.09;;;8.92;77.21
43161;BME280;40968;52.342;5.528;2023-02-03T09:15:04;102374.78;;;8.23;77.28
43161;BME280;40968;52.342;5.528;2023-02-03T09:17:31;102244.16;;;7.73;76.85
43161;BME280;40968;52.342;5.528;2023-02-03T09:19:58;102459.19;;;8.95;76.95
43161;BME280;40968;52.342;5.528;2023-02-03T09:22:24;102457.34;;;8.98;77.25
43161;BME280;40968;52.342;5.528;2023-02-03T09:24:51;102347.94;;;8.26;77.32
43161;BME280;40968;52.342;5.528;2023-02-03T09:27:19;102350.56;;;8.28;77.05
43161;BME280;40968;52.342;5.528;2023-02-03T09:29:45;102466.16;;;9.00;77.14
43161;BME280;40968;52.342;5.528;2023-02-03T09:32:12;102472.25;;;9.03;77.03
43161;BME280;40968;52.342;5.528;2023-02-03T09:34:38;102441.91;;;9.04;76.79
43161;BME280;40968;52.342;5.528;2023-02-03T09:37:05;102465.06;;;9.05;76.92
43161;BME280;40968;52.342;5.528;2023-02-03T09:39:32;102408.34;;;8.75;76.74
43161;BME280;40968;52.342;5.528;2023-02-03T09:42:10;102486.25;;;9.10;76.72
43161;BME280;40968;52.342;5.528;2023-02-03T09:44:47;102482.63;;;9.11;76.59
43161;BME280;40968;52.342;5.528;2023-02-03T09:47:17;102376.19;;;8.56;76.49
43161;BME280;40968;52.342;5.528;2023-02-03T09:49:48;102463.78;;;9.14;76.23
43161;BME280;40968;52.342;5.528;2023-02-03T09:52:18;102479.81;;;9.14;76.32
43161;BME280;40968;52.342;5.528;2023-02-03T09:54:51;102310.13;;;8.15;76.30
43161;BME280;40968;52.342;5.528;2023-02-03T09:57:21;102490.41;;;9.17;76.23
43161;BME280;40968;52.342;5.528;2023-02-03T09:59:50;102382.84;;;8.45;76.37
43161;BME280;40968;52.342;5.528;2023-02-03T10:13:29;102345.72;;;8.38;76.36
43161;BME280;40968;52.342;5.528;2023-02-03T10:16:24;102513.28;;;9.24;76.65
43161;BME280;40968;52.342;5.528;2023-02-03T10:18:58;102489.06;;;9.07;76.53
43161;BME280;40968;52.342;5.528;2023-02-03T10:21:30;102519.31;;;9.29;76.25
43161;BME280;40968;52.342;5.528;2023-02-03T10:24:01;102499.22;;;9.19;76.30
43161;BME280;40968;52.342;5.528;2023-02-03T10:26:29;102514.78;;;9.32;76.26
43161;BME280;40968;52.342;5.528;2023-02-03T10:29:01;102508.19;;;9.18;76.34
43161;BME280;40968;52.342;5.528;2023-02-03T10:31:34;102499.47;;;9.13;76.35
43161;BME280;40968;52.342;5.528;2023-02-03T10:34:08;102500.28;;;9.15;76.24
43161;BME280;40968;52.342;5.528;2023-02-03T10:36:45;102494.69;;;9.21;76.41
43161;BME280;40968;52.342;5.528;2023-02-03T10:39:20;102453.00;;;8.73;76.64
43161;BME280;40968;52.342;5.528;2023-02-03T10:41:50;102557.59;;;9.32;76.43
43161;BME280;40968;52.342;5.528;2023-02-03T10:44:17;102512.06;;;9.11;76.81
43161;BME280;40968;52.342;5.528;2023-02-03T10:46:45;102559.19;;;9.36;76.74
43161;BME280;40968;52.342;5.528;2023-02-03T10:49:12;102546.59;;;9.38;76.71
43161;BME280;40968;52.342;5.528;2023-02-03T10:51:44;102548.34;;;9.39;76.68
43161;BME280;40968;52.342;5.528;2023-02-03T10:54:27;102510.84;;;9.18;76.59
43161;BME280;40968;52.342;5.528;2023-02-03T10:56:57;102345.78;;;8.14;76.63
43161;BME280;40968;52.342;5.528;2023-02-03T10:59:28;102483.03;;;9.02;76.59
43161;BME280;40968;52.342;5.528;2023-02-03T11:01:57;102564.41;;;9.39;76.77
43161;BME280;40968;52.342;5.528;2023-02-03T11:04:25;102435.59;;;8.62;76.50
43161;BME280;40968;52.342;5.528;2023-02-03T11:06:54;102574.31;;;9.37;76.67
43161;BME280;40968;52.342;5.528;2023-02-03T11:09:28;102569.84;;;9.37;76.88
43161;BME280;40968;52.342;5.528;2023-02-03T11:12:05;102552.63;;;9.22;76.97
43161;BME280;40968;52.342;5.528;2023-02-03T11:14:35;102571.66;;;9.37;76.93
43161;BME280;40968;52.342;5.528;2023-02-03T11:17:07;102538.66;;;9.14;77.38
43161;BME280;40968;52.342;5.528;2023-02-03T11:19:36;102557.59;;;9.32;77.90
43161;BME280;40968;52.342;5.528;2023-02-03T11:22:04;102567.63;;;9.26;77.83
43161;BME280;40968;52.342;5.528;2023-02-03T11:24:32;102528.25;;;9.08;77.82
43161;BME280;40968;52.342;5.528;2023-02-03T11:27:04;102448.66;;;8.48;77.74
43161;BME280;40968;52.342;5.528;2023-02-03T11:29:33;102548.13;;;9.01;78.04
43161;BME280;40968;52.342;5.528;2023-02-03T11:32:02;102577.88;;;9.15;78.30
43161;BME280;40968;52.342;5.528;2023-02-03T11:34:34;102580.97;;;9.04;78.29
43161;BME280;40968;52.342;5.528;2023-02-03T11:37:24;102567.91;;;8.96;78.38
43161;BME280;40968;52.342;5.528;2023-02-03T11:39:54;102591.56;;;9.07;79.12
43161;BME280;40968;52.342;5.528;2023-02-03T11:42:23;102578.19;;;9.07;79.54
43161;BME280;40968;52.342;5.528;2023-02-03T11:44:50;102532.84;;;8.82;79.68
43161;BME280;40968;52.342;5.528;2023-02-03T11:47:17;102564.94;;;9.04;79.81
43161;BME280;40968;52.342;5.528;2023-02-03T11:50:09;102584.72;;;9.00;80.41
43161;BME280;40968;52.342;5.528;2023-02-03T11:52:55;102560.63;;;8.78;81.02
43161;BME280;40968;52.342;5.528;2023-02-03T11:55:41;102527.06;;;8.47;81.48
43161;BME280;40968;52.342;5.528;2023-02-03T11:58:25;102589.84;;;8.83;82.02
43161;BME280;40968;52.342;5.528;2023-02-03T12:01:04;102550.06;;;8.51;82.01
43161;BME280;40968;52.342;5.528;2023-02-03T12:03:48;102439.66;;;7.79;81.90
43161;BME280;40968;52.342;5.528;2023-02-03T12:06:41;102607.94;;;8.76;82.06
43161;BME280;40968;52.342;5.528;2023-02-03T12:09:24;102613.28;;;8.76;81.80
43161;BME280;40968;52.342;5.528;2023-02-03T12:12:15;102440.53;;;7.80;81.77
43161;BME280;40968;52.342;5.528;2023-02-03T12:14:51;102607.13;;;8.74;81.47
43161;BME280;40968;52.342;5.528;2023-02-03T12:17:36;102583.75;;;8.55;81.61
43161;BME280;40968;52.342;5.528;2023-02-03T12:20:21;102610.66;;;8.74;81.71
43161;BME280;40968;52.342;5.528;2023-02-03T12:22:58;102487.03;;;7.98;81.32
43161;BME280;40968;52.342;5.528;2023-02-03T12:25:36;102575.94;;;8.51;81.44
43161;BME280;40968;52.342;5.528;2023-02-03T12:28:16;102617.63;;;8.78;81.46
43161;BME280;40968;52.342;5.528;2023-02-03T12:30:51;102620.25;;;8.80;81.23
43161;BME280;40968;52.342;5.528;2023-02-03T12:33:22;102578.53;;;8.52;80.92
43161;BME280;40968;52.342;5.528;2023-02-03T12:35:54;102650.47;;;8.82;80.79
43161;BME280;40968;52.342;5.528;2023-02-03T12:38:30;102646.97;;;8.80;80.29
43161;BME280;40968;52.342;5.528;2023-02-03T12:41:00;102646.75;;;8.86;80.36
43161;BME280;40968;52.342;5.528;2023-02-03T12:43:34;102662.72;;;8.88;80.32
43161;BME280;40968;52.342;5.528;2023-02-03T12:46:06;102639.91;;;8.79;80.19
43161;BME280;40968;52.342;5.528;2023-02-03T12:48:44;102659.97;;;8.91;80.08
43161;BME280;40968;52.342;5.528;2023-02-03T12:51:17;102596.41;;;8.50;80.24
43161;BME280;40968;52.342;5.528;2023-02-03T12:53:52;102673.25;;;8.92;79.82
43161;BME280;40968;52.342;5.528;2023-02-03T12:56:25;102659.97;;;8.91;79.68
43161;BME280;40968;52.342;5.528;2023-02-03T12:58:59;102603.50;;;8.51;79.38
43161;BME280;40968;52.342;5.528;2023-02-03T13:01:33;102657.56;;;8.83;79.72
43161;BME280;40968;52.342;5.528;2023-02-03T13:04:07;102633.19;;;8.67;79.50
43161;BME280;40968;52.342;5.528;2023-02-03T13:06:43;102587.78;;;8.42;79.25
43161;BME280;40968;52.342;5.528;2023-02-03T13:09:24;102677.72;;;8.92;79.32
43161;BME280;40968;52.342;5.528;2023-02-03T13:11:59;102668.00;;;8.89;78.91
43161;BME280;40968;52.342;5.528;2023-02-03T13:14:32;102637.47;;;8.73;79.11
43161;BME280;40968;52.342;5.528;2023-02-03T13:17:06;102674.19;;;8.91;78.68
43161;BME280;40968;52.342;5.528;2023-02-03T13:19:39;102529.47;;;8.06;78.17
43161;BME280;40968;52.342;5.528;2023-02-03T13:22:12;102683.19;;;8.89;77.85
43161;BME280;40968;52.342;5.528;2023-02-03T13:24:44;102686.78;;;8.88;77.82
43161;BME280;40968;52.342;5.528;2023-02-03T13:27:33;102655.47;;;8.68;77.49
43161;BME280;40968;52.342;5.528;2023-02-03T13:30:15;102589.88;;;8.34;76.24